createdAt,value
2023-01-15T00:02:33.203Z,2.19
2023-01-15T00:05:03.554Z,2.06
2023-01-15T00:07:32.754Z,2.03
2023-01-15T00:10:01.193Z,2.23
2023-01-15T00:12:29.653Z,2.03
2023-01-15T00:14:58.447Z,2.18
2023-01-15T00:17:26.917Z,2.14
2023-01-15T00:19:55.273Z,2.20
2023-01-15T00:22:23.449Z,2.14
2023-01-15T00:25:26.639Z,2.10
2023-01-15T00:27:55.333Z,2.12
2023-01-15T00:30:24.925Z,1.86
2023-01-15T00:32:53.049Z,2.10
2023-01-15T00:35:25.089Z,2.07
2023-01-15T00:37:53.298Z,2.08
2023-01-15T00:40:21.876Z,1.80
2023-01-15T00:42:54.498Z,1.92
2023-01-15T00:45:23.983Z,2.05
2023-01-15T00:47:52.355Z,2.08
2023-01-15T00:50:22.567Z,2.11
2023-01-15T00:52:51.316Z,2.08
2023-01-15T00:55:21.529Z,2.02
2023-01-15T00:57:50.132Z,2.08
2023-01-15T01:00:19.192Z,2.04
2023-01-15T01:02:48.054Z,1.99
2023-01-15T01:05:16.791Z,2.05
2023-01-15T01:07:45.079Z,1.89
2023-01-15T01:10:13.494Z,2.02
2023-01-15T01:12:41.477Z,2.01
2023-01-15T01:15:10.880Z,1.76
2023-01-15T01:17:40.150Z,1.83
2023-01-15T01:20:10.433Z,1.61
2023-01-15T01:22:38.654Z,1.97
2023-01-15T01:25:07.755Z,1.99
2023-01-15T01:27:36.089Z,2.05
2023-01-15T01:30:04.882Z,1.86
2023-01-15T01:32:34.765Z,2.10
2023-01-15T01:35:02.990Z,1.81
2023-01-15T01:37:32.068Z,2.11
2023-01-15T01:40:00.332Z,1.87
2023-01-15T01:42:29.105Z,2.04
2023-01-15T01:45:17.301Z,1.85
2023-01-15T01:47:46.589Z,1.90
2023-01-15T01:50:15.008Z,2.02
2023-01-15T01:52:54.142Z,2.06
2023-01-15T01:55:26.297Z,1.91
2023-01-15T01:57:59.869Z,2.13
2023-01-15T02:00:30.708Z,2.04
2023-01-15T02:03:00.300Z,2.14
2023-01-15T02:05:40.937Z,1.89
2023-01-15T02:08:08.890Z,2.10
2023-01-15T02:10:37.526Z,1.95
2023-01-15T02:13:50.699Z,2.13
2023-01-15T02:16:42.535Z,1.91
2023-01-15T02:19:55.199Z,2.10
2023-01-15T02:22:46.678Z,1.90
2023-01-15T02:25:45.513Z,2.19
2023-01-15T02:28:46.665Z,2.14
2023-01-15T02:31:14.829Z,2.17
2023-01-15T02:34:02.394Z,2.23
2023-01-15T02:36:37.408Z,2.19
2023-01-15T02:39:12.644Z,1.96
2023-01-15T02:41:47.864Z,2.21
2023-01-15T02:44:19.937Z,2.23
2023-01-15T02:46:49.539Z,2.25
2023-01-15T02:49:21.443Z,2.33
2023-01-15T02:52:01.952Z,2.48
2023-01-15T02:54:46.542Z,2.32
2023-01-15T02:57:22.489Z,2.43
2023-01-15T02:59:59.091Z,2.46
2023-01-15T03:02:36.947Z,2.49
2023-01-15T03:05:26.673Z,2.35
2023-01-15T03:08:02.930Z,2.44
2023-01-15T03:10:59.047Z,2.60
2023-01-15T03:13:38.327Z,2.65
2023-01-15T03:16:35.445Z,2.60
2023-01-15T03:19:52.903Z,2.55
2023-01-15T03:22:31.022Z,2.34
2023-01-15T03:25:08.754Z,2.21
2023-01-15T03:27:43.754Z,2.59
2023-01-15T03:30:23.363Z,2.47
2023-01-15T03:32:55.329Z,2.64
2023-01-15T03:35:50.564Z,2.71
2023-01-15T03:38:47.253Z,2.46
2023-01-15T03:41:32.712Z,2.71
2023-01-15T03:44:16.116Z,2.61
2023-01-15T03:47:07.337Z,2.51
2023-01-15T03:49:48.853Z,2.76
2023-01-15T03:52:55.904Z,2.70
2023-01-15T03:55:44.985Z,2.70
2023-01-15T03:58:24.195Z,2.72
2023-01-15T04:00:59.993Z,2.48
2023-01-15T04:03:32.508Z,2.71
2023-01-15T04:06:03.487Z,2.70
2023-01-15T04:08:40.023Z,2.78
2023-01-15T04:11:08.754Z,2.45
2023-01-15T04:13:48.009Z,2.61
2023-01-15T04:16:33.489Z,2.47
2023-01-15T04:19:01.937Z,2.56
2023-01-15T04:21:31.145Z,2.45
2023-01-15T04:23:59.539Z,2.51
2023-01-15T04:26:27.947Z,2.18
2023-01-15T04:28:57.150Z,2.55
2023-01-15T04:31:25.654Z,1.75
2023-01-15T04:33:54.279Z,2.69
2023-01-15T04:36:22.543Z,1.73
2023-01-15T04:38:50.809Z,2.67
2023-01-15T04:41:38.354Z,2.80
2023-01-15T04:44:09.515Z,2.52
2023-01-15T04:46:43.475Z,2.72
2023-01-15T04:49:15.748Z,2.67
2023-01-15T04:51:44.621Z,2.68
2023-01-15T04:54:15.061Z,2.52
2023-01-15T04:56:46.613Z,2.24
2023-01-15T04:59:17.376Z,2.82
2023-01-15T05:02:01.893Z,2.82
2023-01-15T05:04:32.145Z,2.78
2023-01-15T05:07:03.474Z,2.76
2023-01-15T05:09:32.043Z,2.76
2023-01-15T05:12:00.198Z,2.80
2023-01-15T05:14:28.407Z,2.77
2023-01-15T05:16:57.182Z,2.64
2023-01-15T05:19:25.490Z,2.54
2023-01-15T05:21:54.749Z,2.73
2023-01-15T05:24:22.910Z,2.66
2023-01-15T05:26:50.953Z,2.69
2023-01-15T05:29:18.918Z,2.62
2023-01-15T05:31:47.518Z,2.81
2023-01-15T05:34:15.953Z,2.79
2023-01-15T05:36:45.415Z,2.84
2023-01-15T05:39:13.965Z,2.84
2023-01-15T05:41:51.714Z,2.58
2023-01-15T05:44:26.866Z,2.65
2023-01-15T05:47:03.019Z,2.84
2023-01-15T05:49:31.694Z,2.88
2023-01-15T05:52:02.260Z,2.89
2023-01-15T05:54:34.612Z,2.87
2023-01-15T05:57:02.951Z,2.57
2023-01-15T05:59:32.994Z,2.93
2023-01-15T06:02:01.250Z,2.71
2023-01-15T06:04:29.339Z,3.01
2023-01-15T06:06:58.683Z,2.95
2023-01-15T06:09:28.328Z,3.09
2023-01-15T06:11:56.701Z,3.00
2023-01-15T06:14:25.338Z,3.20
2023-01-15T06:16:54.092Z,2.84
2023-01-15T06:19:22.638Z,2.96
2023-01-15T06:21:51.152Z,3.03
2023-01-15T06:24:20.332Z,3.28
2023-01-15T06:26:48.574Z,3.24
2023-01-15T06:29:19.166Z,3.33
2023-01-15T06:31:49.761Z,3.13
2023-01-15T06:34:18.749Z,3.15
2023-01-15T06:36:47.286Z,3.46
2023-01-15T06:39:16.658Z,3.55
2023-01-15T06:42:06.107Z,3.43
2023-01-15T06:44:53.148Z,3.40
2023-01-15T06:47:23.449Z,3.59
2023-01-15T06:49:58.408Z,3.51
2023-01-15T06:52:28.650Z,3.49
2023-01-15T06:54:57.103Z,3.34
2023-01-15T06:57:25.525Z,3.51
2023-01-15T06:59:56.190Z,3.55
2023-01-15T07:02:24.822Z,3.41
2023-01-15T07:04:53.631Z,3.72
2023-01-15T07:07:22.157Z,3.29
2023-01-15T07:09:50.829Z,3.62
2023-01-15T07:12:19.432Z,3.71
2023-01-15T07:14:48.613Z,3.71
2023-01-15T07:17:17.141Z,3.77
2023-01-15T07:19:47.319Z,3.82
2023-01-15T07:22:15.349Z,3.69
2023-01-15T07:24:43.557Z,3.88
2023-01-15T07:27:11.845Z,3.92
2023-01-15T07:29:40.077Z,3.83
2023-01-15T07:32:08.546Z,3.86
2023-01-15T07:34:41.439Z,3.95
2023-01-15T07:37:12.516Z,3.97
2023-01-15T07:39:41.170Z,4.02
2023-01-15T07:42:30.032Z,4.02
2023-01-15T07:45:17.249Z,4.00
2023-01-15T07:48:05.533Z,3.68
2023-01-15T07:50:34.028Z,3.89
2023-01-15T07:53:02.880Z,4.19
2023-01-15T07:55:31.738Z,3.93
2023-01-15T07:58:03.603Z,4.21
2023-01-15T08:00:32.873Z,4.08
2023-01-15T08:03:02.743Z,3.54
2023-01-15T08:05:31.646Z,4.14
2023-01-15T08:08:00.179Z,4.27
2023-01-15T08:10:28.846Z,4.32
2023-01-15T08:13:16.168Z,3.54
2023-01-15T08:15:44.944Z,4.34
2023-01-15T08:18:14.515Z,4.14
2023-01-15T08:20:44.538Z,4.35
2023-01-15T08:23:13.919Z,4.46
2023-01-15T08:25:41.969Z,4.22
2023-01-15T08:28:14.925Z,4.03
2023-01-15T08:30:43.074Z,4.50
2023-01-15T08:33:11.410Z,4.06
2023-01-15T08:35:39.895Z,4.54
2023-01-15T08:38:08.883Z,4.40
2023-01-15T08:40:59.941Z,4.52
2023-01-15T08:43:36.121Z,4.44
2023-01-15T08:46:06.014Z,4.82
2023-01-15T08:48:35.083Z,4.78
2023-01-15T08:51:10.311Z,4.77
2023-01-15T08:53:39.601Z,4.95
2023-01-15T08:56:20.490Z,4.17
2023-01-15T08:58:49.049Z,4.24
2023-01-15T09:01:17.476Z,5.06
2023-01-15T09:03:46.402Z,5.11
2023-01-15T09:06:15.027Z,4.95
2023-01-15T09:08:43.884Z,5.18
2023-01-15T09:11:13.478Z,4.91
2023-01-15T09:13:44.389Z,5.07
2023-01-15T09:16:12.945Z,4.94
2023-01-15T09:18:41.715Z,5.24
2023-01-15T09:21:11.068Z,5.26
2023-01-15T09:23:39.629Z,5.15
2023-01-15T09:26:09.236Z,5.13
2023-01-15T09:28:37.741Z,5.31
2023-01-15T09:31:06.005Z,5.18
2023-01-15T09:33:34.703Z,5.19
2023-01-15T09:36:03.611Z,5.34
2023-01-15T09:38:34.852Z,5.35
2023-01-15T09:41:35.267Z,5.10
2023-01-15T09:44:47.594Z,5.32
2023-01-15T09:47:35.067Z,5.44
2023-01-15T09:50:27.406Z,5.50
2023-01-15T09:53:23.985Z,5.52
2023-01-15T09:55:53.589Z,5.31
2023-01-15T09:58:39.251Z,5.41
2023-01-15T10:01:15.559Z,5.45
2023-01-15T10:04:35.213Z,5.75
2023-01-15T10:07:46.618Z,5.81
2023-01-15T10:10:23.589Z,5.52
2023-01-15T10:12:58.787Z,5.71
2023-01-15T10:15:47.886Z,5.73
2023-01-15T10:18:25.883Z,5.71
2023-01-15T10:21:38.216Z,5.98
2023-01-15T10:24:28.922Z,5.98
2023-01-15T10:27:00.098Z,6.02
2023-01-15T10:29:45.900Z,6.07
2023-01-15T10:33:06.583Z,6.04
2023-01-15T10:35:45.982Z,6.08
2023-01-15T10:38:38.728Z,5.81
2023-01-15T10:41:29.225Z,6.05
2023-01-15T10:44:30.386Z,6.09
2023-01-15T10:47:02.365Z,5.95
2023-01-15T10:49:34.157Z,6.07
2023-01-15T10:52:24.216Z,5.91
2023-01-15T10:55:29.033Z,6.09
2023-01-15T10:58:12.335Z,6.05
2023-01-15T11:00:47.235Z,5.99
2023-01-15T11:03:25.988Z,5.68
2023-01-15T11:05:55.388Z,6.04
2023-01-15T11:09:08.626Z,5.99
2023-01-15T11:11:55.289Z,6.01
2023-01-15T11:14:58.566Z,6.13
2023-01-15T11:18:12.153Z,6.06
2023-01-15T11:20:49.741Z,6.07
2023-01-15T11:23:22.086Z,5.83
2023-01-15T11:26:00.942Z,5.82
2023-01-15T11:28:43.512Z,5.96
2023-01-15T11:31:14.138Z,6.16
2023-01-15T11:34:04.061Z,5.88
2023-01-15T11:36:33.862Z,6.14
2023-01-15T11:39:02.441Z,6.20
2023-01-15T11:41:53.057Z,6.20
2023-01-15T11:44:42.662Z,6.18
2023-01-15T11:47:37.115Z,6.33
2023-01-15T11:50:36.994Z,6.36
2023-01-15T11:53:07.373Z,6.38
2023-01-15T11:55:35.983Z,6.40
2023-01-15T11:58:09.199Z,6.46
2023-01-15T12:00:45.344Z,6.27
2023-01-15T12:03:20.408Z,6.52
2023-01-15T12:05:59.610Z,6.55
2023-01-15T12:08:56.508Z,6.52
2023-01-15T12:11:53.957Z,6.52
2023-01-15T12:15:07.222Z,6.52
2023-01-15T12:18:09.696Z,6.52
2023-01-15T12:21:21.247Z,6.45
2023-01-15T12:24:22.909Z,6.40
2023-01-15T12:27:32.637Z,6.44
2023-01-15T12:30:32.857Z,6.20
2023-01-15T12:33:16.251Z,6.41
2023-01-15T12:36:17.100Z,6.38
2023-01-15T12:38:56.221Z,6.32
2023-01-15T12:41:50.706Z,6.21
2023-01-15T12:45:02.112Z,6.27
2023-01-15T12:47:49.652Z,6.22
2023-01-15T12:50:45.368Z,6.25
2023-01-15T12:53:44.172Z,6.19
2023-01-15T12:56:39.743Z,6.22
2023-01-15T12:59:35.024Z,5.88
2023-01-15T13:02:17.642Z,6.18
2023-01-15T13:05:19.601Z,6.12
2023-01-15T13:08:14.305Z,6.18
2023-01-15T13:10:43.294Z,6.10
2023-01-15T13:13:24.797Z,5.84
2023-01-15T13:16:08.118Z,6.11
2023-01-15T13:19:18.417Z,6.15
2023-01-15T13:21:53.189Z,6.09
2023-01-15T13:24:54.509Z,6.13
2023-01-15T13:27:53.019Z,6.13
2023-01-15T13:30:33.992Z,6.06
2023-01-15T13:33:56.919Z,5.95
2023-01-15T13:36:45.735Z,5.94
2023-01-15T13:39:24.055Z,5.98
2023-01-15T13:42:13.205Z,5.93
2023-01-15T13:44:51.263Z,5.77
2023-01-15T13:47:32.833Z,5.89
2023-01-15T13:50:14.211Z,5.86
2023-01-15T13:52:43.244Z,5.85
2023-01-15T13:55:16.092Z,5.79
2023-01-15T13:57:45.273Z,5.76
2023-01-15T14:00:36.557Z,5.78
2023-01-15T14:03:38.366Z,5.43
2023-01-15T14:06:10.224Z,5.29
2023-01-15T14:08:44.431Z,5.52
2023-01-15T14:11:39.772Z,5.37
2023-01-15T14:15:00.419Z,5.20
2023-01-15T14:18:09.021Z,5.08
2023-01-15T14:21:13.989Z,4.93
2023-01-15T14:24:12.801Z,4.85
2023-01-15T14:26:52.335Z,4.80
2023-01-15T14:30:22.460Z,4.76
2023-01-15T14:33:48.429Z,4.64
2023-01-15T14:36:46.445Z,4.65
2023-01-15T14:39:49.427Z,4.55
2023-01-15T14:43:04.973Z,4.58
2023-01-15T14:45:42.486Z,4.46
2023-01-15T14:48:28.548Z,4.52
2023-01-15T14:51:42.579Z,4.49
2023-01-15T14:54:16.378Z,4.40
2023-01-15T14:56:52.257Z,4.18
2023-01-15T14:59:41.815Z,4.24
2023-01-15T15:02:25.641Z,4.44
2023-01-15T15:04:56.582Z,3.70
2023-01-15T15:07:30.297Z,4.40
2023-01-15T15:10:13.517Z,4.34
2023-01-15T15:13:06.127Z,4.09
2023-01-15T15:16:12.037Z,4.24
2023-01-15T15:18:58.807Z,4.00
2023-01-15T15:21:34.426Z,3.98
2023-01-15T15:24:23.801Z,4.18
2023-01-15T15:26:52.582Z,4.17
2023-01-15T15:29:22.300Z,3.86
2023-01-15T15:31:58.605Z,4.09
2023-01-15T15:34:34.197Z,4.09
2023-01-15T15:37:06.652Z,3.25
2023-01-15T15:40:03.673Z,3.81
2023-01-15T15:43:01.704Z,4.05
2023-01-15T15:45:50.780Z,3.96
2023-01-15T15:48:43.316Z,4.01
2023-01-15T15:51:42.394Z,4.02
2023-01-15T15:54:28.446Z,4.05
2023-01-15T15:57:17.361Z,4.02
2023-01-15T15:59:52.585Z,4.05
2023-01-15T16:02:40.728Z,3.99
2023-01-15T16:05:32.766Z,4.00
2023-01-15T16:08:20.121Z,3.99
2023-01-15T16:10:54.644Z,3.89
2023-01-15T16:13:37.102Z,3.98
2023-01-15T16:16:10.406Z,3.96
2023-01-15T16:18:44.783Z,4.00
2023-01-15T16:21:38.037Z,3.82
2023-01-15T16:24:21.448Z,3.92
2023-01-15T16:27:10.677Z,3.93
2023-01-15T16:29:40.085Z,3.91
2023-01-15T16:32:22.738Z,3.96
2023-01-15T16:34:58.672Z,3.91
2023-01-15T16:37:33.224Z,3.99
2023-01-15T16:40:05.167Z,3.95
2023-01-15T16:42:44.157Z,3.55
2023-01-15T16:45:27.926Z,3.70
2023-01-15T16:48:25.451Z,3.89
2023-01-15T16:50:54.432Z,3.83
2023-01-15T16:53:42.339Z,3.67
2023-01-15T16:56:38.037Z,3.91
2023-01-15T16:59:27.844Z,3.69
2023-01-15T17:02:16.867Z,3.88
2023-01-15T17:04:47.363Z,3.85
2023-01-15T17:07:23.683Z,3.87
2023-01-15T17:10:00.123Z,3.14
2023-01-15T17:12:37.713Z,3.93
2023-01-15T17:15:15.681Z,3.87
2023-01-15T17:17:47.034Z,3.90
2023-01-15T17:20:17.841Z,3.90
2023-01-15T17:22:50.123Z,3.88
2023-01-15T17:25:28.648Z,3.76
2023-01-15T17:28:00.142Z,3.68
2023-01-15T17:30:35.480Z,3.82
2023-01-15T17:33:09.251Z,3.91
2023-01-15T17:35:44.055Z,3.91
2023-01-15T17:38:14.352Z,3.81
2023-01-15T17:40:43.599Z,3.82
2023-01-15T17:43:16.551Z,3.59
2023-01-15T17:45:45.476Z,3.88
2023-01-15T17:48:14.672Z,3.91
2023-01-15T17:50:43.292Z,3.66
2023-01-15T17:53:12.651Z,3.90
2023-01-15T17:56:00.058Z,3.86
2023-01-15T17:58:48.034Z,3.80
2023-01-15T18:01:43.340Z,3.76
2023-01-15T18:05:06.647Z,3.84
2023-01-15T18:07:43.687Z,3.86
2023-01-15T18:10:19.729Z,3.88
2023-01-15T18:12:51.606Z,3.70
2023-01-15T18:15:20.805Z,3.87
2023-01-15T18:17:51.074Z,3.77
2023-01-15T18:20:20.677Z,3.87
2023-01-15T18:22:49.672Z,3.88
2023-01-15T18:25:18.391Z,3.57
2023-01-15T18:27:48.742Z,3.84
2023-01-15T18:30:18.506Z,3.81
2023-01-15T18:32:47.131Z,3.90
2023-01-15T18:35:15.770Z,3.89
2023-01-15T18:37:45.183Z,3.84
2023-01-15T18:40:15.135Z,3.82
2023-01-15T18:43:02.523Z,3.66
2023-01-15T18:45:50.387Z,3.63
2023-01-15T18:48:18.948Z,3.88
2023-01-15T18:50:49.635Z,3.59
2023-01-15T18:53:18.232Z,3.94
2023-01-15T18:55:47.833Z,3.90
2023-01-15T18:58:17.953Z,3.73
2023-01-15T19:00:46.697Z,3.93
2023-01-15T19:03:15.593Z,3.96
2023-01-15T19:05:45.327Z,3.93
2023-01-15T19:08:14.846Z,3.92
2023-01-15T19:10:43.687Z,3.75
2023-01-15T19:13:17.431Z,3.95
2023-01-15T19:16:04.938Z,3.66
2023-01-15T19:18:42.935Z,3.91
2023-01-15T19:21:14.589Z,3.90
2023-01-15T19:23:43.365Z,3.89
2023-01-15T19:26:12.975Z,3.96
2023-01-15T19:28:42.032Z,3.97
2023-01-15T19:31:29.570Z,3.96
2023-01-15T19:34:31.226Z,3.96
2023-01-15T19:36:48.843Z,3.95
2023-01-15T19:39:18.173Z,3.92
2023-01-15T19:42:05.265Z,3.79
2023-01-15T19:44:53.460Z,2.99
2023-01-15T19:47:50.273Z,3.90
2023-01-15T19:50:36.286Z,3.63
2023-01-15T19:53:06.808Z,3.87
2023-01-15T19:55:38.210Z,3.78
2023-01-15T19:58:10.411Z,3.85
2023-01-15T20:00:41.044Z,3.63
2023-01-15T20:03:13.986Z,3.80
2023-01-15T20:05:44.825Z,3.85
2023-01-15T20:08:17.613Z,3.82
2023-01-15T20:10:50.785Z,3.80
2023-01-15T20:13:41.584Z,3.82
2023-01-15T20:16:15.227Z,3.85
2023-01-15T20:18:44.930Z,3.87
2023-01-15T20:21:19.038Z,3.88
2023-01-15T20:23:48.848Z,3.87
2023-01-15T20:26:18.809Z,3.71
2023-01-15T20:28:48.042Z,3.61
2023-01-15T20:31:19.065Z,3.73
2023-01-15T20:33:48.029Z,3.79
2023-01-15T20:36:16.462Z,3.84
2023-01-15T20:38:45.685Z,3.66
2023-01-15T20:41:32.811Z,3.67
2023-01-15T20:44:20.040Z,3.86
2023-01-15T20:46:48.748Z,3.72
2023-01-15T20:49:33.015Z,4.00
2023-01-15T20:52:01.557Z,3.95
2023-01-15T20:54:30.169Z,3.98
2023-01-15T20:56:58.448Z,3.98
2023-01-15T20:59:27.104Z,4.05
2023-01-15T21:01:55.706Z,4.10
2023-01-15T21:04:24.375Z,3.98
2023-01-15T21:06:52.972Z,4.16
2023-01-15T21:09:22.001Z,4.17
2023-01-15T21:11:50.524Z,4.15
2023-01-15T21:14:18.804Z,4.15
2023-01-15T21:16:51.795Z,4.16
2023-01-15T21:19:21.335Z,4.14
2023-01-15T21:21:49.922Z,4.17
2023-01-15T21:24:18.422Z,4.20
2023-01-15T21:26:48.759Z,4.20
2023-01-15T21:29:17.083Z,4.21
2023-01-15T21:31:46.020Z,4.19
2023-01-15T21:34:14.598Z,4.12
2023-01-15T21:36:43.354Z,3.86
2023-01-15T21:39:14.428Z,4.12
2023-01-15T21:42:02.468Z,3.84
2023-01-15T21:44:36.005Z,4.17
2023-01-15T21:47:10.944Z,3.97
2023-01-15T21:49:40.749Z,4.15
2023-01-15T21:52:16.229Z,3.94
2023-01-15T21:54:45.714Z,4.11
2023-01-15T21:57:15.755Z,4.14
2023-01-15T21:59:44.808Z,3.86
2023-01-15T22:02:17.193Z,4.14
2023-01-15T22:04:45.690Z,4.10
2023-01-15T22:07:14.705Z,4.18
2023-01-15T22:09:43.517Z,4.16
2023-01-15T22:12:14.077Z,3.97
2023-01-15T22:14:42.750Z,4.19
2023-01-15T22:17:12.091Z,4.03
2023-01-15T22:19:40.772Z,4.22
2023-01-15T22:22:11.681Z,4.12
2023-01-15T22:24:41.577Z,4.07
2023-01-15T22:27:15.824Z,4.24
2023-01-15T22:29:44.625Z,4.07
2023-01-15T22:32:16.333Z,4.11
2023-01-15T22:34:44.443Z,4.17
2023-01-15T22:37:15.642Z,4.16
2023-01-15T22:39:44.067Z,4.27
2023-01-15T22:42:24.925Z,4.22
2023-01-15T22:44:54.441Z,3.99
2023-01-15T22:47:22.705Z,4.23
2023-01-15T22:49:51.352Z,4.23
2023-01-15T22:52:21.259Z,4.19
2023-01-15T22:54:49.883Z,4.03
2023-01-15T22:57:18.034Z,4.20
2023-01-15T22:59:46.852Z,3.91
2023-01-15T23:02:15.272Z,4.06
2023-01-15T23:04:44.311Z,4.17
2023-01-15T23:07:13.303Z,4.02
2023-01-15T23:09:41.969Z,4.16
2023-01-15T23:12:10.690Z,4.17
2023-01-15T23:14:39.081Z,4.18
2023-01-15T23:17:07.338Z,4.19
2023-01-15T23:19:36.007Z,3.98
2023-01-15T23:22:04.146Z,4.09
2023-01-15T23:24:32.932Z,3.99
2023-01-15T23:27:01.562Z,4.19
2023-01-15T23:29:30.262Z,4.02
2023-01-15T23:31:58.520Z,4.08
2023-01-15T23:34:27.253Z,3.83
2023-01-15T23:36:55.871Z,4.07
2023-01-15T23:39:24.168Z,4.07
2023-01-15T23:42:11.396Z,3.79
2023-01-15T23:44:58.197Z,4.00
2023-01-15T23:47:26.368Z,3.97
2023-01-15T23:49:54.719Z,3.95
2023-01-15T23:52:23.753Z,4.00
2023-01-15T23:54:53.192Z,3.97
2023-01-15T23:57:21.562Z,3.88
2023-01-15T23:59:50.275Z,3.67
